createdAt,value
2016-02-22T00:00:27.848Z,62.71
2016-02-22T00:01:27.913Z,62.81
2016-02-22T00:02:27.948Z,62.62
2016-02-22T00:03:27.997Z,62.33
2016-02-22T00:04:28.062Z,62.62
2016-02-22T00:05:28.099Z,62.62
2016-02-22T00:06:28.148Z,62.42
2016-02-22T00:07:28.214Z,62.52
2016-02-22T00:08:28.247Z,62.23
2016-02-22T00:09:28.313Z,62.33
2016-02-22T00:10:28.362Z,62.81
2016-02-22T00:11:28.397Z,62.81
2016-02-22T00:12:28.477Z,62.62
2016-02-22T00:13:28.495Z,62.52
2016-02-22T00:14:28.561Z,62.81
2016-02-22T00:15:28.641Z,62.81
2016-02-22T00:16:28.664Z,62.23
2016-02-22T00:17:28.714Z,62.23
2016-02-22T00:18:28.811Z,62.23
2016-02-22T00:19:28.829Z,62.33
2016-02-22T00:20:28.879Z,62.81
2016-02-22T00:21:28.927Z,62.04
2016-02-22T00:22:28.993Z,63
2016-02-22T00:23:29.012Z,62.62
2016-02-22T00:24:29.077Z,62.33
2016-02-22T00:25:29.142Z,62.81
2016-02-22T00:26:29.176Z,62.81
2016-02-22T00:27:29.226Z,62.71
2016-02-22T00:28:29.306Z,62.62
2016-02-22T00:29:29.340Z,62.81
2016-02-22T00:30:29.374Z,62.23
2016-02-22T00:31:29.455Z,62.81
2016-02-22T00:32:29.489Z,62.71
2016-02-22T00:33:29.539Z,62.62
2016-02-22T00:34:29.587Z,62.71
2016-02-22T00:35:29.637Z,62.62
2016-02-22T00:36:29.703Z,62.42
2016-02-22T00:37:29.736Z,62.23
2016-02-22T00:38:29.786Z,62.81
2016-02-22T00:39:29.851Z,62.62
2016-02-22T00:40:29.901Z,62.13
2016-02-22T00:41:29.950Z,62.33
2016-02-22T00:42:30.000Z,62.81
2016-02-22T00:43:30.066Z,62.23
2016-02-22T00:44:30.100Z,62.81
2016-02-22T00:45:30.164Z,62.62
2016-02-22T00:46:30.198Z,62.71
2016-02-22T00:47:30.264Z,62.71
2016-02-22T00:48:30.313Z,62.62
2016-02-22T00:49:29.597Z,62.52
2016-02-22T00:50:30.412Z,62.81
2016-02-22T00:51:30.478Z,62.42
2016-02-22T00:52:30.496Z,62.04
2016-02-22T00:53:30.576Z,62.13
2016-02-22T00:54:30.626Z,62.13
2016-02-22T00:55:30.660Z,62.71
2016-02-22T00:56:30.726Z,62.33
2016-02-22T00:57:30.774Z,62.52
2016-02-22T00:58:30.809Z,62.23
2016-02-22T00:59:30.889Z,62.42
2016-02-22T01:00:30.908Z,62.42
2016-02-22T01:01:30.989Z,62.42
2016-02-22T01:02:31.037Z,62.52
2016-02-22T01:03:31.073Z,62.42
2016-02-22T01:04:31.138Z,62.42
2016-02-22T01:05:31.187Z,62.52
2016-02-22T01:06:31.220Z,62.71
2016-02-22T01:07:31.271Z,62.71
2016-02-22T01:08:31.336Z,62.62
2016-02-22T01:09:31.370Z,62.71
2016-02-22T01:10:31.419Z,62.52
2016-02-22T01:11:31.484Z,62.42
2016-02-22T01:12:31.533Z,62.62
2016-02-22T01:13:31.599Z,62.42
2016-02-22T01:14:31.633Z,62.52
2016-02-22T01:15:31.683Z,62.52
2016-02-22T01:16:31.763Z,62.52
2016-02-22T01:17:31.782Z,62.42
2016-02-22T01:18:31.831Z,62.42
2016-02-22T01:19:31.896Z,62.71
2016-02-22T01:20:31.946Z,62.52
2016-02-22T01:21:31.996Z,62.81
2016-02-22T01:22:32.060Z,62.81
2016-02-22T01:23:32.110Z,62.23
2016-02-22T01:24:32.144Z,62.71
2016-02-22T01:25:32.193Z,62.62
2016-02-22T01:26:32.243Z,62.52
2016-02-22T01:27:32.309Z,62.81
2016-02-22T01:28:32.374Z,62.81
2016-02-22T01:29:32.392Z,62.71
2016-02-22T01:30:32.473Z,62.62
2016-02-22T01:31:32.523Z,62.81
2016-02-22T01:32:32.556Z,62.71
2016-02-22T01:33:32.621Z,62.62
2016-02-22T01:34:32.671Z,62.81
2016-02-22T01:35:32.705Z,62.81
2016-02-22T01:36:32.754Z,62.42
2016-02-22T01:37:32.804Z,62.04
2016-02-22T01:38:32.870Z,62.81
2016-02-22T01:39:32.934Z,62.23
2016-02-22T01:40:32.953Z,62.33
2016-02-22T01:41:33.034Z,62.13
2016-02-22T01:42:33.083Z,62.04
2016-02-22T01:43:33.117Z,62.23
2016-02-22T01:44:33.183Z,62.23
2016-02-22T01:45:33.232Z,62.71
2016-02-22T01:46:33.266Z,62.52
2016-02-22T01:47:33.331Z,62.52
2016-02-22T01:48:33.397Z,62.42
2016-02-22T01:49:33.430Z,62.52
2016-02-22T01:50:33.496Z,62.42
2016-02-22T01:51:33.530Z,62.62
2016-02-22T01:52:33.594Z,62.42
2016-02-22T01:53:33.660Z,62.42
2016-02-22T01:54:33.678Z,62.52
2016-02-22T01:55:33.727Z,62.52
2016-02-22T01:56:33.808Z,62.62
2016-02-22T01:57:33.827Z,62.62
2016-02-22T01:58:33.892Z,62.71
2016-02-22T01:59:33.957Z,62.81
2016-02-22T02:00:34.007Z,62.04
2016-02-22T02:01:34.040Z,62.71
2016-02-22T02:02:34.106Z,62.62
2016-02-22T02:03:34.156Z,62.33
2016-02-22T02:04:34.190Z,62.13
2016-02-22T02:05:34.270Z,62.42
2016-02-22T02:06:34.304Z,62.13
2016-02-22T02:07:34.354Z,62.13
2016-02-22T02:08:34.403Z,62.81
2016-02-22T02:09:34.468Z,62.81
2016-02-22T02:10:34.503Z,62.71
2016-02-22T02:11:34.552Z,62.52
2016-02-22T02:12:34.617Z,62.52
2016-02-22T02:13:34.667Z,62.52
2016-02-22T02:14:34.716Z,62.23
2016-02-22T02:15:34.766Z,62.23
2016-02-22T02:16:34.815Z,62.33
2016-02-22T02:17:34.880Z,62.52
2016-02-22T02:18:34.914Z,62.42
2016-02-22T02:19:34.963Z,62.62
2016-02-22T02:20:35.029Z,62.52
2016-02-22T02:21:35.063Z,62.62
2016-02-22T02:22:35.113Z,62.62
2016-02-22T02:23:35.193Z,62.33
2016-02-22T02:24:35.228Z,62.33
2016-02-22T02:25:35.277Z,62.52
2016-02-22T02:26:35.327Z,62.23
2016-02-22T02:27:35.392Z,62.23
2016-02-22T02:28:35.441Z,62.42
2016-02-22T02:29:35.476Z,62.62
2016-02-22T02:30:35.525Z,62.23
2016-02-22T02:31:35.606Z,62.52
2016-02-22T02:32:35.640Z,62.23
2016-02-22T02:33:35.674Z,62.33
2016-02-22T02:34:35.739Z,62.62
2016-02-22T02:35:35.788Z,62.42
2016-02-22T02:36:35.838Z,62.52
2016-02-22T02:37:35.903Z,62.52
2016-02-22T02:38:35.953Z,62.62
2016-02-22T02:39:35.987Z,62.23
2016-02-22T02:40:36.036Z,62.62
2016-02-22T02:41:36.086Z,62.71
2016-02-22T02:42:36.151Z,62.52
2016-02-22T02:43:36.216Z,62.62
2016-02-22T02:44:36.250Z,62.33
2016-02-22T02:45:36.314Z,62.23
2016-02-22T02:46:36.364Z,62.33
2016-02-22T02:47:36.399Z,62.52
2016-02-22T02:48:36.447Z,62.52
2016-02-22T02:49:36.513Z,62.62
2016-02-22T02:50:36.547Z,62.42
2016-02-22T02:51:36.596Z,62.62
2016-02-22T02:52:36.677Z,62.23
2016-02-22T02:53:36.711Z,62.33
2016-02-22T02:54:36.760Z,62.33
2016-02-22T02:55:36.826Z,62.62
2016-02-22T02:56:36.860Z,62.52
2016-02-22T02:57:36.910Z,62.52
2016-02-22T02:58:36.990Z,62.52
2016-02-22T02:59:37.024Z,62.23
2016-02-22T03:00:37.059Z,62.23
2016-02-22T03:01:37.123Z,62.33
2016-02-22T03:02:37.204Z,62.42
2016-02-22T03:03:37.223Z,62.52
2016-02-22T03:04:37.288Z,62.62
2016-02-22T03:05:37.338Z,62.23
2016-02-22T03:06:37.356Z,62.42
2016-02-22T03:07:37.453Z,62.52
2016-02-22T03:08:37.471Z,62.42
2016-02-22T03:09:37.536Z,62.62
2016-02-22T03:10:37.586Z,62.52
2016-02-22T03:11:37.635Z,62.42
2016-02-22T03:12:37.684Z,62.42
2016-02-22T03:13:37.750Z,62.42
2016-02-22T03:14:37.767Z,62.71
2016-02-22T03:15:37.818Z,62.33
2016-02-22T03:16:37.898Z,62.33
2016-02-22T03:17:37.932Z,62.33
2016-02-22T03:18:37.982Z,62.23
2016-02-22T03:19:38.048Z,62.33
2016-02-22T03:20:38.097Z,62.52
2016-02-22T03:21:38.161Z,62.71
2016-02-22T03:22:38.181Z,62.42
2016-02-22T03:23:38.230Z,62.23
2016-02-22T03:24:38.310Z,62.23
2016-02-22T03:25:38.344Z,62.42
2016-02-22T03:26:38.394Z,62.33
2016-02-22T03:27:38.460Z,62.1
2016-02-22T03:28:38.509Z,62.33
2016-02-22T03:29:38.543Z,62.2
2016-02-22T03:30:38.624Z,62.33
2016-02-22T03:31:38.674Z,62.1
2016-02-22T03:32:38.707Z,62.33
2016-02-22T03:33:38.741Z,62.42
2016-02-22T03:34:38.807Z,62.23
2016-02-22T03:35:38.871Z,62.23
2016-02-22T03:36:38.921Z,62.42
2016-02-22T03:37:38.954Z,62.33
2016-02-22T03:38:39.020Z,62.42
2016-02-22T03:39:39.070Z,62.52
2016-02-22T03:40:39.104Z,62.52
2016-02-22T03:41:39.169Z,62.3
2016-02-22T03:42:39.234Z,62.52
2016-02-22T03:43:39.268Z,62.52
2016-02-22T03:44:39.317Z,62.33
2016-02-22T03:45:39.383Z,62.33
2016-02-22T03:46:39.417Z,62.49
2016-02-22T03:47:39.467Z,62.87
2016-02-22T03:48:39.547Z,62.33
2016-02-22T03:49:39.566Z,62.42
2016-02-22T03:50:39.614Z,62.33
2016-02-22T03:51:39.680Z,62.52
2016-02-22T03:52:39.730Z,62.23
2016-02-22T03:53:39.795Z,62.39
2016-02-22T03:54:39.844Z,62.52
2016-02-22T03:55:39.894Z,62.49
2016-02-22T03:56:39.928Z,62.33
2016-02-22T03:57:40.009Z,62.52
2016-02-22T03:58:40.027Z,62.42
2016-02-22T03:59:40.108Z,62.52
2016-02-22T04:00:40.142Z,62.33
2016-02-22T04:01:40.176Z,62.42
2016-02-22T04:02:40.257Z,62.42
2016-02-22T04:03:40.307Z,62.49
2016-02-22T04:04:40.340Z,62.9
2016-02-22T04:05:40.405Z,62.33
2016-02-22T04:06:40.471Z,62.52
2016-02-22T04:07:40.489Z,62.59
2016-02-22T04:08:40.570Z,62.3
2016-02-22T04:09:40.604Z,62.42
2016-02-22T04:10:40.653Z,62.52
2016-02-22T04:11:40.718Z,62.33
2016-02-22T04:12:40.753Z,62.9
2016-02-22T04:13:40.818Z,63.09
2016-02-22T04:14:40.867Z,63.06
2016-02-22T04:15:40.901Z,62.71
2016-02-22T04:16:40.951Z,62.81
2016-02-22T04:17:41.016Z,62.71
2016-02-22T04:18:41.065Z,62.87
2016-02-22T04:19:41.099Z,62.87
2016-02-22T04:20:41.180Z,62.9
2016-02-22T04:21:41.214Z,63.06
2016-02-22T04:22:41.247Z,63.06
2016-02-22T04:23:41.328Z,62.96
2016-02-22T04:24:41.363Z,62.81
2016-02-22T04:25:41.427Z,62.68
2016-02-22T04:26:41.461Z,63.16
2016-02-22T04:27:41.511Z,62.42
2016-02-22T04:28:41.576Z,62.49
2016-02-22T04:29:41.610Z,62.52
2016-02-22T04:30:41.676Z,62.52
2016-02-22T04:31:41.725Z,62.71
2016-02-22T04:32:41.790Z,62.81
2016-02-22T04:33:41.824Z,62.23
2016-02-22T04:34:41.890Z,62.62
2016-02-22T04:35:41.939Z,62.52
2016-02-22T04:36:41.973Z,62.81
2016-02-22T04:37:42.023Z,62.81
2016-02-22T04:38:42.073Z,62.81
2016-02-22T04:39:42.153Z,62.62
2016-02-22T04:40:42.187Z,63.19
2016-02-22T04:41:42.236Z,62.81
2016-02-22T04:42:42.302Z,62.81
2016-02-22T04:43:42.351Z,62.33
2016-02-22T04:44:42.384Z,62.49
2016-02-22T04:45:42.451Z,62.52
2016-02-22T04:46:42.500Z,62.77
2016-02-22T04:47:42.534Z,62.9
2016-02-22T04:48:42.599Z,62.33
2016-02-22T04:49:42.634Z,62.52
2016-02-22T04:50:42.714Z,62.9
2016-02-22T04:51:42.763Z,62.71
2016-02-22T04:52:42.797Z,62.42
2016-02-22T04:53:42.877Z,62.49
2016-02-22T04:54:42.912Z,62.52
2016-02-22T04:55:42.946Z,62.42
2016-02-22T04:56:43.011Z,62.42
2016-02-22T04:57:43.077Z,62.42
2016-02-22T04:58:43.094Z,62.49
2016-02-22T04:59:43.160Z,62.77
2016-02-22T05:00:43.209Z,63
2016-02-22T05:01:43.260Z,63
2016-02-22T05:02:43.340Z,63.09
2016-02-22T05:03:43.358Z,63.09
2016-02-22T05:04:43.426Z,62.87
2016-02-22T05:05:43.475Z,62.9
2016-02-22T05:06:43.509Z,62.81
2016-02-22T05:07:43.574Z,62.9
2016-02-22T05:08:43.623Z,62.68
2016-02-22T05:09:43.673Z,63
2016-02-22T05:10:43.723Z,63.09
2016-02-22T05:11:43.787Z,63.09
2016-02-22T05:12:43.822Z,62.9
2016-02-22T05:13:43.872Z,62.9
2016-02-22T05:14:43.937Z,63.09
2016-02-22T05:15:43.970Z,62.77
2016-02-22T05:16:44.036Z,63.06
2016-02-22T05:17:44.070Z,63.16
2016-02-22T05:18:44.135Z,62.96
2016-02-22T05:19:44.183Z,62.96
2016-02-22T05:20:44.233Z,62.87
2016-02-22T05:21:44.315Z,62.81
2016-02-22T05:22:44.349Z,62.9
2016-02-22T05:23:44.413Z,63.19
2016-02-22T05:24:44.433Z,63.09
2016-02-22T05:25:44.497Z,63
2016-02-22T05:26:44.546Z,62.9
2016-02-22T05:27:44.596Z,62.9
2016-02-22T05:28:44.647Z,62.87
2016-02-22T05:29:44.727Z,62.9
2016-02-22T05:30:44.745Z,62.9
2016-02-22T05:31:44.795Z,63
2016-02-22T05:32:44.860Z,62.9
2016-02-22T05:33:44.909Z,63.09
2016-02-22T05:34:44.943Z,62.81
2016-02-22T05:35:45.024Z,63.09
2016-02-22T05:36:45.059Z,63.19
2016-02-22T05:37:45.092Z,62.9
2016-02-22T05:38:45.173Z,62.9
2016-02-22T05:39:45.222Z,62.9
2016-02-22T05:40:45.272Z,63.19
2016-02-22T05:41:45.306Z,62.9
2016-02-22T05:42:45.356Z,63
2016-02-22T05:43:45.420Z,63.19
2016-02-22T05:44:45.470Z,63.19
2016-02-22T05:45:45.520Z,62.81
2016-02-22T05:46:45.569Z,62.68
2016-02-22T05:47:45.619Z,63.09
2016-02-22T05:48:45.700Z,62.62
2016-02-22T05:49:45.734Z,63.09
2016-02-22T05:50:45.783Z,62.81
2016-02-22T05:51:45.817Z,62.9
2016-02-22T05:52:45.883Z,63.16
2016-02-22T05:53:45.916Z,63.19
2016-02-22T05:54:45.997Z,62.9
2016-02-22T05:55:46.047Z,62.87
2016-02-22T05:56:46.066Z,63.09
2016-02-22T05:57:46.146Z,63.19
2016-02-22T05:58:46.195Z,63.38
2016-02-22T05:59:46.230Z,63.19
2016-02-22T06:00:46.294Z,62.96
2016-02-22T06:01:46.344Z,63.29
2016-02-22T06:02:46.378Z,62.9
2016-02-22T06:03:46.428Z,62.77
2016-02-22T06:04:46.493Z,60.86
2016-02-22T06:05:46.542Z,61.18
2016-02-22T06:06:46.593Z,62.39
2016-02-22T06:07:46.657Z,63.54
2016-02-22T06:08:46.690Z,62.68
2016-02-22T06:09:46.752Z,62.71
2016-02-22T06:10:46.790Z,62.81
2016-02-22T06:11:46.826Z,63
2016-02-22T06:12:46.863Z,62.9
2016-02-22T06:13:46.885Z,62.9
2016-02-22T06:14:46.924Z,62.9
2016-02-22T06:15:47.031Z,62.81
2016-02-22T06:16:47.045Z,62.81
2016-02-22T06:17:47.075Z,62.9
2016-02-22T06:18:47.134Z,62.81
2016-02-22T06:19:47.196Z,62.9
2016-02-22T06:20:47.229Z,62.9
2016-02-22T06:21:47.261Z,62.71
2016-02-22T06:22:47.308Z,63.09
2016-02-22T06:23:47.373Z,63.16
2016-02-22T06:24:47.422Z,62.96
2016-02-22T06:25:47.470Z,63
2016-02-22T06:26:47.534Z,62.96
2016-02-22T06:27:47.583Z,62.87
2016-02-22T06:28:47.616Z,63.16
2016-02-22T06:29:47.681Z,62.96
2016-02-22T06:30:47.730Z,63.16
2016-02-22T06:31:47.764Z,63.38
2016-02-22T06:32:47.828Z,63.35
2016-02-22T06:33:47.877Z,62.96
2016-02-22T06:34:47.943Z,63.29
2016-02-22T06:35:47.992Z,63.16
2016-02-22T06:36:48.010Z,63.26
2016-02-22T06:37:48.091Z,63.45
2016-02-22T06:38:48.156Z,63.29
2016-02-22T06:39:48.174Z,63.09
2016-02-22T06:40:48.224Z,63.19
2016-02-22T06:41:48.290Z,63.45
2016-02-22T06:42:48.339Z,63.26
2016-02-22T06:43:48.388Z,63.48
2016-02-22T06:44:48.438Z,63.26
2016-02-22T06:45:48.503Z,63.06
2016-02-22T06:46:48.553Z,63.45
2016-02-22T06:47:48.603Z,63.16
2016-02-22T06:48:48.637Z,63.35
2016-02-22T06:49:48.701Z,63.06
2016-02-22T06:50:48.735Z,63.35
2016-02-22T06:51:48.785Z,63.38
2016-02-22T06:52:48.867Z,63.26
2016-02-22T06:53:48.884Z,63.09
2016-02-22T06:54:48.933Z,62.96
2016-02-22T06:55:49.014Z,63.06
2016-02-22T06:56:49.064Z,63.38
2016-02-22T06:57:49.113Z,63.16
2016-02-22T06:58:49.147Z,63.06
2016-02-22T06:59:49.197Z,63.06
2016-02-22T07:00:49.263Z,63.09
2016-02-22T07:01:49.312Z,63.06
2016-02-22T07:02:49.346Z,63.45
2016-02-22T07:03:49.427Z,63.06
2016-02-22T07:04:49.476Z,62.87
2016-02-22T07:05:49.526Z,63.16
2016-02-22T07:06:49.576Z,63.29
2016-02-22T07:07:49.625Z,63.16
2016-02-22T07:08:49.659Z,63.38
2016-02-22T07:09:49.724Z,63.06
2016-02-22T07:10:49.789Z,63.35
2016-02-22T07:11:49.807Z,63.09
2016-02-22T07:12:49.873Z,63.16
2016-02-22T07:13:49.937Z,62.96
2016-02-22T07:14:49.972Z,63.09
2016-02-22T07:15:50.021Z,63.35
2016-02-22T07:16:50.087Z,63.06
2016-02-22T07:17:50.136Z,63
2016-02-22T07:18:50.170Z,63.16
2016-02-22T07:19:50.251Z,63
2016-02-22T07:20:50.284Z,62.96
2016-02-22T07:21:50.319Z,62.87
2016-02-22T07:22:50.399Z,63.26
2016-02-22T07:23:50.418Z,62.96
2016-02-22T07:24:50.483Z,62.81
2016-02-22T07:25:50.532Z,62.96
2016-02-22T07:26:50.583Z,62.96
2016-02-22T07:27:50.647Z,62.96
2016-02-22T07:28:50.681Z,62.81
2016-02-22T07:29:50.730Z,62.77
2016-02-22T07:30:50.797Z,63.19
2016-02-22T07:31:50.861Z,63.19
2016-02-22T07:32:50.879Z,63.16
2016-02-22T07:33:50.961Z,63.29
2016-02-22T07:34:50.994Z,63.26
2016-02-22T07:35:51.044Z,63.19
2016-02-22T07:36:51.109Z,63.45
2016-02-22T07:37:51.143Z,63.45
2016-02-22T07:38:51.224Z,63.29
2016-02-22T07:39:51.257Z,63.35
2016-02-22T07:40:51.292Z,63.09
2016-02-22T07:41:51.388Z,63.09
2016-02-22T07:42:51.407Z,63.09
2016-02-22T07:43:51.456Z,63.19
2016-02-22T07:44:51.506Z,63.06
2016-02-22T07:45:51.571Z,63.19
2016-02-22T07:46:51.604Z,63
2016-02-22T07:47:51.654Z,63.19
2016-02-22T07:48:51.735Z,63.19
2016-02-22T07:49:51.769Z,63.48
2016-02-22T07:50:51.834Z,63.29
2016-02-22T07:51:51.853Z,63.09
2016-02-22T07:52:51.934Z,63.96
2016-02-22T07:53:51.983Z,62.81
2016-02-22T07:54:52.017Z,63.86
2016-02-22T07:55:52.067Z,62.81
2016-02-22T07:56:52.131Z,63.86
2016-02-22T07:57:52.166Z,63.19
2016-02-22T07:58:52.216Z,63.35
2016-02-22T07:59:52.296Z,63.48
2016-02-22T08:00:52.330Z,63.09
2016-02-22T08:01:52.380Z,63.09
2016-02-22T08:02:52.430Z,63.09
2016-02-22T08:03:52.463Z,63.09
2016-02-22T08:04:52.543Z,62.42
2016-02-22T08:05:52.578Z,60.5
2016-02-22T08:06:51.877Z,60.19
2016-02-22T08:07:52.707Z,60.86
2016-02-22T08:08:52.743Z,61.34
2016-02-22T08:09:52.792Z,61.82
2016-02-22T08:10:52.857Z,62.39
2016-02-22T08:11:52.890Z,62.77
2016-02-22T08:12:52.941Z,62.3
2016-02-22T08:13:53.006Z,62.77
2016-02-22T08:14:53.039Z,63.16
2016-02-22T08:15:53.104Z,63.35
2016-02-22T08:16:53.154Z,63.35
2016-02-22T08:17:53.188Z,63.35
2016-02-22T08:18:53.269Z,63.35
2016-02-22T08:19:53.303Z,63.64
2016-02-22T08:20:53.353Z,63.83
2016-02-22T08:21:53.418Z,63.64
2016-02-22T08:22:53.467Z,63.64
2016-02-22T08:23:53.501Z,63.86
2016-02-22T08:24:53.551Z,64.05
2016-02-22T08:25:53.616Z,63.38
2016-02-22T08:26:53.666Z,62.96
2016-02-22T08:27:53.714Z,61.94
2016-02-22T08:28:53.749Z,61.63
2016-02-22T08:29:53.814Z,60.47
2016-02-22T08:30:53.880Z,60.03
2016-02-22T08:31:53.897Z,59.42
2016-02-22T08:32:53.963Z,60
2016-02-22T08:33:54.028Z,61.34
2016-02-22T08:34:54.062Z,60.57
2016-02-22T08:35:54.111Z,61.24
2016-02-22T08:36:54.177Z,61.63
2016-02-22T08:37:54.210Z,62.01
2016-02-22T08:38:54.261Z,61.82
2016-02-22T08:39:54.326Z,62.01
2016-02-22T08:40:54.375Z,62.3
2016-02-22T08:41:54.425Z,62.49
2016-02-22T08:42:54.474Z,62.49
2016-02-22T08:43:54.508Z,62.49
2016-02-22T08:44:54.590Z,62.59
2016-02-22T08:45:54.623Z,62.49
2016-02-22T08:46:54.673Z,62.39
2016-02-22T08:47:54.738Z,62.59
2016-02-22T08:48:54.771Z,62.39
2016-02-22T08:49:54.837Z,62.39
2016-02-22T08:50:54.901Z,62.39
2016-02-22T08:51:54.937Z,62.42
2016-02-22T08:52:54.970Z,62.49
2016-02-22T08:53:55.034Z,62.3
2016-02-22T08:54:55.084Z,62.33
2016-02-22T08:55:55.133Z,62.33
2016-02-22T08:56:55.184Z,62.71
2016-02-22T08:57:55.249Z,62.71
2016-02-22T08:58:55.298Z,62.62
2016-02-22T08:59:55.332Z,62.71
2016-02-22T09:00:55.414Z,62.68
2016-02-22T09:01:55.431Z,62.81
2016-02-22T09:02:55.496Z,62.42
2016-02-22T09:03:55.546Z,62.62
2016-02-22T09:04:55.611Z,62.39
2016-02-22T09:05:55.646Z,62.52
2016-02-22T09:06:55.726Z,62.39
2016-02-22T09:07:55.744Z,62.49
2016-02-22T09:08:55.810Z,62.71
2016-02-22T09:09:55.860Z,62.39
2016-02-22T09:10:55.909Z,62.49
2016-02-22T09:11:55.958Z,62.52
2016-02-22T09:12:56.008Z,62.71
2016-02-22T09:13:56.042Z,62.33
2016-02-22T09:14:56.107Z,62.23
2016-02-22T09:15:56.172Z,63.29
2016-02-22T09:16:56.206Z,62.9
2016-02-22T09:17:56.271Z,62.9
2016-02-22T09:18:56.306Z,63.29
2016-02-22T09:19:56.371Z,63
2016-02-22T09:20:56.420Z,63.38
2016-02-22T09:21:56.454Z,63.29
2016-02-22T09:22:56.519Z,63.57
2016-02-22T09:23:56.569Z,63.38
2016-02-22T09:24:56.618Z,63.86
2016-02-22T09:25:56.683Z,63.76
2016-02-22T09:26:56.733Z,63.57
2016-02-22T09:27:56.798Z,63.29
2016-02-22T09:28:56.817Z,63.48
2016-02-22T09:29:56.881Z,63.38
2016-02-22T09:30:56.916Z,63.38
2016-02-22T09:31:56.981Z,63.57
2016-02-22T09:32:57.014Z,63.29
2016-02-22T09:33:57.080Z,63.29
2016-02-22T09:34:57.145Z,63.29
2016-02-22T09:35:57.179Z,63.29
2016-02-22T09:36:57.229Z,63.19
2016-02-22T09:37:57.310Z,63.19
2016-02-22T09:38:57.328Z,63.19
2016-02-22T09:39:57.393Z,63.19
2016-02-22T09:40:57.458Z,63.09
2016-02-22T09:41:57.493Z,63.29
2016-02-22T09:42:57.541Z,63.29
2016-02-22T09:43:57.623Z,62.9
2016-02-22T09:44:57.640Z,63.96
2016-02-22T09:45:57.707Z,63
2016-02-22T09:46:57.740Z,63.19
2016-02-22T09:47:57.789Z,63
2016-02-22T09:48:57.854Z,63.19
2016-02-22T09:49:57.889Z,63
2016-02-22T09:50:58.220Z,63.19
2016-02-22T09:51:58.019Z,63.19
2016-02-22T09:52:58.054Z,63.09
2016-02-22T09:53:58.102Z,63.09
2016-02-22T09:54:58.168Z,63.09
2016-02-22T09:55:58.217Z,63.09
2016-02-22T09:56:58.266Z,63.29
2016-02-22T09:57:58.317Z,63.38
2016-02-22T09:58:58.351Z,63.29
2016-02-22T09:59:58.416Z,63.19
2016-02-22T10:00:58.465Z,63.38
2016-02-22T10:01:58.514Z,63.09
2016-02-22T10:02:58.580Z,63.19
2016-02-22T10:03:58.630Z,63.67
2016-02-22T10:04:58.663Z,63
2016-02-22T10:05:58.744Z,63.76
2016-02-22T10:06:58.778Z,63.29
2016-02-22T10:07:58.812Z,63.09
2016-02-22T10:08:58.877Z,63.09
2016-02-22T10:09:58.910Z,63
2016-02-22T10:10:58.991Z,62.9
2016-02-22T10:11:59.041Z,62.81
2016-02-22T10:12:59.076Z,62.9
2016-02-22T10:13:59.140Z,62.71
2016-02-22T10:14:59.191Z,62.9
2016-02-22T10:15:59.224Z,63
2016-02-22T10:16:59.289Z,62.71
2016-02-22T10:17:59.340Z,63
2016-02-22T10:18:58.638Z,63.09
2016-02-22T10:19:59.438Z,63.09
2016-02-22T10:20:59.503Z,62.9
2016-02-22T10:21:59.537Z,62.9
2016-02-22T10:22:59.603Z,62.81
2016-02-22T10:23:59.684Z,62.52
2016-02-22T10:24:59.686Z,62.52
2016-02-22T10:25:59.751Z,62.52
2016-02-22T10:26:59.785Z,62.33
2016-02-22T10:27:59.850Z,62.42
2016-02-22T10:28:59.915Z,62.42
2016-02-22T10:29:59.949Z,62.42
2016-02-22T10:30:59.999Z,62.13
2016-02-22T10:32:00.064Z,62.42
2016-02-22T10:33:00.114Z,62.42
2016-02-22T10:34:00.147Z,62.42
2016-02-22T10:35:00.228Z,62.52
2016-02-22T10:36:00.278Z,62.42
2016-02-22T10:37:00.296Z,62.62
2016-02-22T10:38:00.377Z,62.71
2016-02-22T10:39:00.427Z,62.52
2016-02-22T10:40:00.461Z,62.62
2016-02-22T10:41:00.510Z,62.42
2016-02-22T10:42:00.575Z,62.52
2016-02-22T10:43:00.609Z,62.52
2016-02-22T10:44:00.659Z,62.71
2016-02-22T10:45:00.724Z,62.62
2016-02-22T10:46:00.774Z,62.62
2016-02-22T10:47:00.823Z,62.81
2016-02-22T10:48:00.888Z,62.81
2016-02-22T10:49:00.923Z,62.81
2016-02-22T10:50:00.987Z,62.23
2016-02-22T10:51:01.021Z,62.23
2016-02-22T10:52:01.071Z,62.13
2016-02-22T10:53:01.152Z,62.04
2016-02-22T10:54:01.186Z,61.94
2016-02-22T10:55:01.235Z,62.04
2016-02-22T10:56:01.301Z,62.13
2016-02-22T10:57:01.334Z,61.85
2016-02-22T10:58:01.384Z,62.13
2016-02-22T10:59:01.450Z,62.23
2016-02-22T11:00:01.499Z,62.04
2016-02-22T11:01:01.548Z,62.33
2016-02-22T11:02:01.583Z,62.13
2016-02-22T11:03:01.631Z,62.52
2016-02-22T11:04:01.697Z,62.52
2016-02-22T11:05:01.747Z,62.13
2016-02-22T11:06:01.797Z,62.52
2016-02-22T11:07:01.861Z,62.33
2016-02-22T11:08:01.911Z,62.13
2016-02-22T11:09:01.944Z,62.42
2016-02-22T11:10:02.057Z,61.66
2016-02-22T11:11:02.075Z,61.56
2016-02-22T11:12:02.093Z,61.27
2016-02-22T11:13:02.158Z,61.94
2016-02-22T11:14:02.208Z,61.94
2016-02-22T11:15:02.321Z,61.94
2016-02-22T11:16:02.166Z,61.75
2016-02-22T11:17:02.357Z,61.66
2016-02-22T11:18:02.437Z,61.46
2016-02-22T11:19:02.488Z,61.75
2016-02-22T11:20:02.537Z,61.85
2016-02-22T11:21:02.571Z,61.94
2016-02-22T11:22:02.636Z,61.37
2016-02-22T11:23:02.670Z,61.37
2016-02-22T11:24:02.720Z,61.08
2016-02-22T11:25:02.801Z,61.08
2016-02-22T11:26:02.818Z,61.27
2016-02-22T11:27:02.900Z,61.08
2016-02-22T11:28:02.918Z,61.37
2016-02-22T11:29:02.983Z,61.46
2016-02-22T11:30:03.033Z,61.18
2016-02-22T11:31:03.081Z,60.99
2016-02-22T11:32:03.132Z,61.27
2016-02-22T11:33:03.197Z,61.37
2016-02-22T11:34:03.231Z,61.46
2016-02-22T11:35:03.280Z,61.46
2016-02-22T11:36:03.345Z,61.75
2016-02-22T11:37:03.395Z,61.56
2016-02-22T11:38:03.429Z,61.75
2016-02-22T11:39:03.510Z,61.37
2016-02-22T11:40:03.544Z,61.94
2016-02-22T11:41:03.609Z,61.94
2016-02-22T11:42:03.643Z,61.85
2016-02-22T11:43:03.693Z,61.46
2016-02-22T11:44:03.757Z,61.46
2016-02-22T11:45:03.808Z,61.37
2016-02-22T11:46:03.841Z,61.66
2016-02-22T11:47:03.922Z,61.27
2016-02-22T11:48:03.971Z,61.46
2016-02-22T11:49:03.990Z,61.66
2016-02-22T11:50:04.071Z,61.46
2016-02-22T11:51:04.105Z,61.37
2016-02-22T11:52:04.154Z,61.46
2016-02-22T11:53:04.219Z,61.66
2016-02-22T11:54:04.254Z,61.18
2016-02-22T11:55:04.318Z,61.46
2016-02-22T11:56:04.399Z,61.46
2016-02-22T11:57:04.401Z,61.46
2016-02-22T11:58:04.468Z,61.37
2016-02-22T11:59:04.517Z,61.46
2016-02-22T12:00:04.582Z,61.37
2016-02-22T12:01:04.631Z,61.27
2016-02-22T12:02:04.681Z,61.66
2016-02-22T12:03:04.715Z,61.37
2016-02-22T12:04:04.764Z,61.46
2016-02-22T12:05:04.830Z,61.18
2016-02-22T12:06:04.894Z,61.27
2016-02-22T12:07:04.945Z,61.46
2016-02-22T12:08:04.963Z,61.18
2016-02-22T12:09:05.028Z,61.37
2016-02-22T12:10:05.093Z,61.66
2016-02-22T12:11:05.159Z,61.66
2016-02-22T12:12:05.177Z,61.27
2016-02-22T12:13:05.258Z,60.31
2016-02-22T12:14:05.276Z,59.06
2016-02-22T12:15:05.168Z,59.45
2016-02-22T12:16:05.422Z,60.6
2016-02-22T12:17:05.441Z,60.5
2016-02-22T12:18:05.490Z,61.43
2016-02-22T12:19:05.554Z,60.76
2016-02-22T12:20:05.605Z,61.18
2016-02-22T12:21:05.623Z,61.18
2016-02-22T12:22:05.704Z,60.86
2016-02-22T12:23:05.753Z,61.05
2016-02-22T12:24:05.804Z,61.24
2016-02-22T12:25:05.837Z,61.15
2016-02-22T12:26:05.902Z,61.08
2016-02-22T12:27:05.936Z,61.08
2016-02-22T12:28:05.984Z,60.89
2016-02-22T12:29:06.098Z,60.89
2016-02-22T12:30:06.101Z,60.89
2016-02-22T12:31:06.165Z,60.86
2016-02-22T12:32:06.214Z,60.96
2016-02-22T12:33:06.265Z,61.37
2016-02-22T12:34:06.314Z,60.99
2016-02-22T12:35:06.364Z,60.89
2016-02-22T12:36:06.428Z,60.76
2016-02-22T12:37:06.495Z,61.18
2016-02-22T12:38:06.511Z,61.05
2016-02-22T12:39:06.562Z,61.08
2016-02-22T12:40:06.627Z,61.08
2016-02-22T12:41:06.660Z,61.15
2016-02-22T12:42:06.711Z,61.18
2016-02-22T12:43:06.776Z,61.34
2016-02-22T12:44:06.810Z,61.37
2016-02-22T12:45:06.890Z,61.18
2016-02-22T12:46:06.925Z,61.18
2016-02-22T12:47:06.974Z,61.18
2016-02-22T12:48:07.039Z,60.89
2016-02-22T12:49:07.104Z,60.79
2016-02-22T12:50:07.138Z,60.79
2016-02-22T12:51:07.204Z,61.18
2016-02-22T12:52:07.254Z,60.89
2016-02-22T12:53:07.287Z,61.18
2016-02-22T12:54:07.342Z,61.37
2016-02-22T12:55:07.391Z,60.96
2016-02-22T12:56:07.425Z,61.27
2016-02-22T12:57:07.490Z,61.08